sensor_id;sensor_type;location;lat;lon;timestamp;pressure;altitude;pressure_sealevel;temperature;humidity
21863;BME280;11096;51.338;12.524;2023-08-01T00:00:34;98839.78;;;18.65;100.00
21863;BME280;11096;51.338;12.524;2023-08-01T00:03:00;98846.69;;;18.66;100.00
21863;BME280;11096;51.338;12.524;2023-08-01T00:05:25;98838.56;;;18.61;100.00
21863;BME280;11096;51.338;12.524;2023-08-01T00:07:52;98834.19;;;18.69;100.00
21863;BME280;11096;51.338;12.524;2023-08-01T00:10:17;98825.72;;;18.52;100.00
21863;BME280;11096;51.338;12.524;2023-08-01T00:12:43;98821.53;;;18.57;100.00
21863;BME280;11096;51.338;12.524;2023-08-01T00:15:08;98821.41;;;18.44;100.00
21863;BME280;11096;51.338;12.524;2023-08-01T00:17:34;98821.59;;;18.42;100.00
21863;BME280;11096;51.338;12.524;2023-08-01T00:20:01;98816.09;;;18.37;100.00
21863;BME280;11096;51.338;12.524;2023-08-01T00:22:26;98818.50;;;18.82;100.00
21863;BME280;11096;51.338;12.524;2023-08-01T00:24:52;98828.94;;;18.47;100.00
21863;BME280;11096;51.338;12.524;2023-08-01T00:27:17;98833.81;;;18.29;100.00
21863;BME280;11096;51.338;12.524;2023-08-01T00:29:43;98825.56;;;18.32;100.00
21863;BME280;11096;51.338;12.524;2023-08-01T00:32:08;98823.66;;;18.26;100.00
21863;BME280;11096;51.338;12.524;2023-08-01T00:34:34;98817.03;;;18.30;100.00
21863;BME280;11096;51.338;12.524;2023-08-01T00:36:59;98805.31;;;18.54;100.00
21863;BME280;11096;51.338;12.524;2023-08-01T00:39:24;98817.91;;;18.37;100.00
21863;BME280;11096;51.338;12.524;2023-08-01T00:41:50;98825.31;;;18.27;100.00
21863;BME280;11096;51.338;12.524;2023-08-01T00:44:15;98811.28;;;18.19;100.00
21863;BME280;11096;51.338;12.524;2023-08-01T00:46:41;98802.31;;;17.92;100.00
21863;BME280;11096;51.338;12.524;2023-08-01T00:49:06;98792.41;;;18.16;100.00
21863;BME280;11096;51.338;12.524;2023-08-01T00:51:33;98788.47;;;18.05;100.00
21863;BME280;11096;51.338;12.524;2023-08-01T00:54:00;98791.09;;;18.05;100.00
21863;BME280;11096;51.338;12.524;2023-08-01T00:56:25;98785.47;;;18.08;100.00
21863;BME280;11096;51.338;12.524;2023-08-01T00:58:51;98782.59;;;18.03;100.00
21863;BME280;11096;51.338;12.524;2023-08-01T01:01:16;98767.56;;;17.97;100.00
21863;BME280;11096;51.338;12.524;2023-08-01T01:03:42;98766.75;;;17.96;100.00
21863;BME280;11096;51.338;12.524;2023-08-01T01:06:20;98764.00;;;18.05;100.00
21863;BME280;11096;51.338;12.524;2023-08-01T01:08:48;98755.56;;;17.88;100.00
21863;BME280;11096;51.338;12.524;2023-08-01T01:11:14;98759.78;;;17.89;100.00
21863;BME280;11096;51.338;12.524;2023-08-01T01:13:40;98759.91;;;17.80;100.00
21863;BME280;11096;51.338;12.524;2023-08-01T01:16:05;98744.03;;;18.10;100.00
21863;BME280;11096;51.338;12.524;2023-08-01T01:18:30;98749.34;;;17.95;100.00
21863;BME280;11096;51.338;12.524;2023-08-01T01:20:56;98743.53;;;18.00;100.00
21863;BME280;11096;51.338;12.524;2023-08-01T01:23:22;98733.59;;;17.95;100.00
21863;BME280;11096;51.338;12.524;2023-08-01T01:25:49;98731.28;;;18.07;100.00
21863;BME280;11096;51.338;12.524;2023-08-01T01:28:15;98719.50;;;18.03;100.00
21863;BME280;11096;51.338;12.524;2023-08-01T01:30:42;98721.38;;;17.88;100.00
21863;BME280;11096;51.338;12.524;2023-08-01T01:33:09;98718.88;;;18.01;100.00
21863;BME280;11096;51.338;12.524;2023-08-01T01:35:34;98708.81;;;18.05;100.00
21863;BME280;11096;51.338;12.524;2023-08-01T01:38:00;98701.47;;;18.00;100.00
21863;BME280;11096;51.338;12.524;2023-08-01T01:40:29;98707.41;;;18.09;100.00
21863;BME280;11096;51.338;12.524;2023-08-01T01:42:55;98699.09;;;18.05;100.00
21863;BME280;11096;51.338;12.524;2023-08-01T01:45:20;98692.34;;;17.96;100.00
21863;BME280;11096;51.338;12.524;2023-08-01T01:47:46;98686.81;;;18.12;100.00
21863;BME280;11096;51.338;12.524;2023-08-01T01:50:11;98693.22;;;18.03;100.00
21863;BME280;11096;51.338;12.524;2023-08-01T01:52:36;98683.47;;;18.53;100.00
21863;BME280;11096;51.338;12.524;2023-08-01T01:55:02;98686.81;;;18.12;100.00
21863;BME280;11096;51.338;12.524;2023-08-01T01:57:27;98684.00;;;18.14;100.00
21863;BME280;11096;51.338;12.524;2023-08-01T01:59:53;98682.75;;;18.10;100.00
21863;BME280;11096;51.338;12.524;2023-08-01T02:02:18;98685.50;;;18.01;100.00
21863;BME280;11096;51.338;12.524;2023-08-01T02:04:46;98673.91;;;18.17;100.00
21863;BME280;11096;51.338;12.524;2023-08-01T02:07:12;98670.56;;;18.02;100.00
21863;BME280;11096;51.338;12.524;2023-08-01T02:09:39;98668.06;;;18.50;100.00
21863;BME280;11096;51.338;12.524;2023-08-01T02:12:05;98663.97;;;17.85;100.00
21863;BME280;11096;51.338;12.524;2023-08-01T02:14:30;98668.25;;;17.92;100.00
21863;BME280;11096;51.338;12.524;2023-08-01T02:16:55;98667.09;;;18.01;100.00
21863;BME280;11096;51.338;12.524;2023-08-01T02:19:21;98660.81;;;17.96;100.00
21863;BME280;11096;51.338;12.524;2023-08-01T02:21:46;98654.81;;;18.02;100.00
21863;BME280;11096;51.338;12.524;2023-08-01T02:24:11;98663.59;;;17.73;100.00
21863;BME280;11096;51.338;12.524;2023-08-01T02:26:37;98657.44;;;17.80;100.00
21863;BME280;11096;51.338;12.524;2023-08-01T02:29:02;98651.06;;;17.90;100.00
21863;BME280;11096;51.338;12.524;2023-08-01T02:31:28;98653.53;;;17.98;100.00
21863;BME280;11096;51.338;12.524;2023-08-01T02:33:53;98640.66;;;18.03;100.00
21863;BME280;11096;51.338;12.524;2023-08-01T02:36:18;98647.91;;;17.79;100.00
21863;BME280;11096;51.338;12.524;2023-08-01T02:38:44;98651.53;;;18.00;100.00
21863;BME280;11096;51.338;12.524;2023-08-01T02:41:09;98716.88;;;18.24;100.00
21863;BME280;11096;51.338;12.524;2023-08-01T02:43:35;98730.09;;;18.10;100.00
21863;BME280;11096;51.338;12.524;2023-08-01T02:46:01;98664.03;;;18.19;100.00
21863;BME280;11096;51.338;12.524;2023-08-01T02:48:27;98638.56;;;17.92;100.00
21863;BME280;11096;51.338;12.524;2023-08-01T02:50:52;98620.47;;;18.10;100.00
21863;BME280;11096;51.338;12.524;2023-08-01T02:53:18;98617.56;;;17.98;100.00
21863;BME280;11096;51.338;12.524;2023-08-01T02:55:44;98595.63;;;18.13;100.00
21863;BME280;11096;51.338;12.524;2023-08-01T02:58:11;98596.53;;;17.98;100.00
21863;BME280;11096;51.338;12.524;2023-08-01T03:00:40;98575.81;;;17.82;100.00
21863;BME280;11096;51.338;12.524;2023-08-01T03:03:06;98577.72;;;17.95;100.00
21863;BME280;11096;51.338;12.524;2023-08-01T03:05:31;98577.84;;;17.87;100.00
21863;BME280;11096;51.338;12.524;2023-08-01T03:07:57;98566.19;;;17.96;100.00
21863;BME280;11096;51.338;12.524;2023-08-01T03:10:22;98550.56;;;17.88;100.00
21863;BME280;11096;51.338;12.524;2023-08-01T03:12:47;98562.75;;;17.95;100.00
21863;BME280;11096;51.338;12.524;2023-08-01T03:15:13;98560.19;;;18.09;100.00
21863;BME280;11096;51.338;12.524;2023-08-01T03:17:38;98546.34;;;17.93;100.00
21863;BME280;11096;51.338;12.524;2023-08-01T03:20:04;98549.44;;;17.97;100.00
21863;BME280;11096;51.338;12.524;2023-08-01T03:22:30;98551.50;;;18.08;100.00
21863;BME280;11096;51.338;12.524;2023-08-01T03:24:55;98551.22;;;18.24;100.00
21863;BME280;11096;51.338;12.524;2023-08-01T03:27:21;98542.75;;;18.01;100.00
21863;BME280;11096;51.338;12.524;2023-08-01T03:29:46;98548.66;;;18.03;100.00
21863;BME280;11096;51.338;12.524;2023-08-01T03:32:12;98544.81;;;18.06;100.00
21863;BME280;11096;51.338;12.524;2023-08-01T03:34:37;98548.88;;;18.08;100.00
21863;BME280;11096;51.338;12.524;2023-08-01T03:37:04;98543.50;;;17.88;100.00
21863;BME280;11096;51.338;12.524;2023-08-01T03:39:29;98553.91;;;18.03;100.00
21863;BME280;11096;51.338;12.524;2023-08-01T03:41:55;98543.63;;;18.08;100.00
21863;BME280;11096;51.338;12.524;2023-08-01T03:44:20;98544.00;;;18.05;100.00
21863;BME280;11096;51.338;12.524;2023-08-01T03:46:46;98543.63;;;18.08;100.00
21863;BME280;11096;51.338;12.524;2023-08-01T03:49:12;98551.72;;;18.07;100.00
21863;BME280;11096;51.338;12.524;2023-08-01T03:51:38;98546.13;;;18.16;100.00
21863;BME280;11096;51.338;12.524;2023-08-01T03:54:03;98541.03;;;18.15;100.00
21863;BME280;11096;51.338;12.524;2023-08-01T03:56:29;98541.94;;;18.29;100.00
21863;BME280;11096;51.338;12.524;2023-08-01T03:58:55;98533.56;;;18.18;100.00
21863;BME280;11096;51.338;12.524;2023-08-01T04:01:20;98540.13;;;18.29;100.00
21863;BME280;11096;51.338;12.524;2023-08-01T04:03:46;98529.09;;;18.12;100.00
21863;BME280;11096;51.338;12.524;2023-08-01T04:06:11;98730.50;;;18.13;100.00
21863;BME280;11096;51.338;12.524;2023-08-01T04:08:40;98742.91;;;18.19;100.00
21863;BME280;11096;51.338;12.524;2023-08-01T04:11:06;98697.34;;;18.12;100.00
21863;BME280;11096;51.338;12.524;2023-08-01T04:13:31;98646.34;;;18.07;100.00
21863;BME280;11096;51.338;12.524;2023-08-01T04:15:56;98610.88;;;18.24;100.00
21863;BME280;11096;51.338;12.524;2023-08-01T04:18:22;98577.16;;;17.99;100.00
21863;BME280;11096;51.338;12.524;2023-08-01T04:20:47;98552.53;;;18.07;100.00
21863;BME280;11096;51.338;12.524;2023-08-01T04:23:13;98535.19;;;18.19;100.00
21863;BME280;11096;51.338;12.524;2023-08-01T04:25:40;98524.47;;;18.21;100.00
21863;BME280;11096;51.338;12.524;2023-08-01T04:28:06;98521.44;;;18.17;100.00
21863;BME280;11096;51.338;12.524;2023-08-01T04:30:31;98522.19;;;18.11;100.00
21863;BME280;11096;51.338;12.524;2023-08-01T04:32:58;98508.69;;;18.14;100.00
21863;BME280;11096;51.338;12.524;2023-08-01T04:35:23;98509.31;;;18.16;100.00
21863;BME280;11096;51.338;12.524;2023-08-01T04:37:49;98502.38;;;18.09;100.00
21863;BME280;11096;51.338;12.524;2023-08-01T04:40:14;98494.91;;;18.12;100.00
21863;BME280;11096;51.338;12.524;2023-08-01T04:42:40;98493.16;;;18.26;100.00
21863;BME280;11096;51.338;12.524;2023-08-01T04:45:05;98487.88;;;18.26;100.00
21863;BME280;11096;51.338;12.524;2023-08-01T04:47:32;98478.59;;;18.30;100.00
21863;BME280;11096;51.338;12.524;2023-08-01T04:49:57;98464.84;;;18.21;100.00
21863;BME280;11096;51.338;12.524;2023-08-01T04:52:23;98463.06;;;18.29;100.00
21863;BME280;11096;51.338;12.524;2023-08-01T04:54:48;98453.13;;;18.31;100.00
21863;BME280;11096;51.338;12.524;2023-08-01T04:57:14;98448.25;;;18.28;100.00
21863;BME280;11096;51.338;12.524;2023-08-01T04:59:39;98454.75;;;18.32;100.00
21863;BME280;11096;51.338;12.524;2023-08-01T05:02:04;98442.81;;;18.29;100.00
21863;BME280;11096;51.338;12.524;2023-08-01T05:04:30;98444.22;;;18.25;100.00
21863;BME280;11096;51.338;12.524;2023-08-01T05:06:55;98445.00;;;18.26;100.00
21863;BME280;11096;51.338;12.524;2023-08-01T05:09:20;98447.38;;;18.14;100.00
21863;BME280;11096;51.338;12.524;2023-08-01T05:11:46;98445.41;;;18.22;100.00
21863;BME280;11096;51.338;12.524;2023-08-01T05:14:11;98443.59;;;18.16;100.00
21863;BME280;11096;51.338;12.524;2023-08-01T05:16:37;98430.81;;;18.13;100.00
21863;BME280;11096;51.338;12.524;2023-08-01T05:19:02;98429.84;;;18.28;100.00
21863;BME280;11096;51.338;12.524;2023-08-01T05:21:27;98427.63;;;18.24;100.00
21863;BME280;11096;51.338;12.524;2023-08-01T05:23:53;98423.22;;;18.32;100.00
21863;BME280;11096;51.338;12.524;2023-08-01T05:26:18;98422.97;;;18.20;100.00
21863;BME280;11096;51.338;12.524;2023-08-01T05:28:44;98425.81;;;18.25;100.00
21863;BME280;11096;51.338;12.524;2023-08-01T05:31:09;98427.72;;;18.51;100.00
21863;BME280;11096;51.338;12.524;2023-08-01T05:33:34;98422.88;;;18.61;100.00
21863;BME280;11096;51.338;12.524;2023-08-01T05:36:00;98415.72;;;18.29;100.00
21863;BME280;11096;51.338;12.524;2023-08-01T05:38:26;98420.97;;;18.29;100.00
21863;BME280;11096;51.338;12.524;2023-08-01T05:40:51;98420.72;;;18.23;100.00
21863;BME280;11096;51.338;12.524;2023-08-01T05:43:17;98421.94;;;18.21;100.00
21863;BME280;11096;51.338;12.524;2023-08-01T05:45:42;98417.09;;;18.18;100.00
21863;BME280;11096;51.338;12.524;2023-08-01T05:48:07;98420.50;;;18.80;100.00
21863;BME280;11096;51.338;12.524;2023-08-01T05:50:33;98395.31;;;19.64;100.00
21863;BME280;11096;51.338;12.524;2023-08-01T05:52:58;98396.97;;;19.71;100.00
21863;BME280;11096;51.338;12.524;2023-08-01T05:55:24;98385.38;;;19.66;100.00
21863;BME280;11096;51.338;12.524;2023-08-01T05:57:49;98381.56;;;19.48;100.00
21863;BME280;11096;51.338;12.524;2023-08-01T06:00:17;98386.84;;;19.42;100.00
21863;BME280;11096;51.338;12.524;2023-08-01T06:02:44;98384.03;;;19.43;100.00
21863;BME280;11096;51.338;12.524;2023-08-01T06:05:09;98382.41;;;19.36;100.00
21863;BME280;11096;51.338;12.524;2023-08-01T06:07:35;98380.03;;;19.01;100.00
21863;BME280;11096;51.338;12.524;2023-08-01T06:10:00;98365.41;;;19.05;100.00
21863;BME280;11096;51.338;12.524;2023-08-01T06:12:26;98358.03;;;19.60;100.00
21863;BME280;11096;51.338;12.524;2023-08-01T06:14:51;98348.25;;;20.26;100.00
21863;BME280;11096;51.338;12.524;2023-08-01T06:17:17;98510.06;;;19.73;100.00
21863;BME280;11096;51.338;12.524;2023-08-01T06:19:42;98454.91;;;19.58;100.00
21863;BME280;11096;51.338;12.524;2023-08-01T06:22:08;98399.13;;;19.81;100.00
21863;BME280;11096;51.338;12.524;2023-08-01T06:24:33;98374.91;;;20.11;100.00
21863;BME280;11096;51.338;12.524;2023-08-01T06:26:59;98363.91;;;19.69;100.00
21863;BME280;11096;51.338;12.524;2023-08-01T06:29:25;98367.38;;;19.56;100.00
21863;BME280;11096;51.338;12.524;2023-08-01T06:31:51;98367.41;;;19.49;100.00
21863;BME280;11096;51.338;12.524;2023-08-01T06:34:16;98357.25;;;19.46;100.00
21863;BME280;11096;51.338;12.524;2023-08-01T06:36:42;98360.81;;;19.85;100.00
21863;BME280;11096;51.338;12.524;2023-08-01T06:39:07;98363.06;;;20.20;100.00
21863;BME280;11096;51.338;12.524;2023-08-01T06:41:33;98352.03;;;20.36;100.00
21863;BME280;11096;51.338;12.524;2023-08-01T06:43:58;98344.72;;;20.38;100.00
21863;BME280;11096;51.338;12.524;2023-08-01T06:46:24;98339.75;;;20.24;100.00
21863;BME280;11096;51.338;12.524;2023-08-01T06:48:49;98340.56;;;20.17;100.00
21863;BME280;11096;51.338;12.524;2023-08-01T06:51:14;98329.31;;;20.04;100.00
21863;BME280;11096;51.338;12.524;2023-08-01T06:53:40;98337.63;;;20.01;100.00
21863;BME280;11096;51.338;12.524;2023-08-01T06:56:05;98342.28;;;20.37;100.00
21863;BME280;11096;51.338;12.524;2023-08-01T06:58:31;98354.09;;;20.28;100.00
21863;BME280;11096;51.338;12.524;2023-08-01T07:00:57;98347.81;;;19.90;100.00
21863;BME280;11096;51.338;12.524;2023-08-01T07:03:22;98353.03;;;20.04;100.00
21863;BME280;11096;51.338;12.524;2023-08-01T07:05:47;98370.00;;;19.69;100.00
21863;BME280;11096;51.338;12.524;2023-08-01T07:08:13;98358.84;;;19.74;100.00
21863;BME280;11096;51.338;12.524;2023-08-01T07:10:38;98356.00;;;19.69;100.00
21863;BME280;11096;51.338;12.524;2023-08-01T07:13:03;98368.56;;;19.67;100.00
21863;BME280;11096;51.338;12.524;2023-08-01T07:15:32;98371.81;;;19.69;100.00
21863;BME280;11096;51.338;12.524;2023-08-01T07:17:58;98378.72;;;19.70;100.00
21863;BME280;11096;51.338;12.524;2023-08-01T07:20:24;98387.84;;;19.74;100.00
21863;BME280;11096;51.338;12.524;2023-08-01T07:22:50;98389.25;;;19.63;100.00
21863;BME280;11096;51.338;12.524;2023-08-01T07:25:15;98400.59;;;19.70;100.00
21863;BME280;11096;51.338;12.524;2023-08-01T07:27:41;98398.69;;;19.98;100.00
21863;BME280;11096;51.338;12.524;2023-08-01T07:30:07;98400.97;;;19.87;100.00
21863;BME280;11096;51.338;12.524;2023-08-01T07:32:33;98400.06;;;20.07;100.00
21863;BME280;11096;51.338;12.524;2023-08-01T07:34:58;98401.84;;;20.13;100.00
21863;BME280;11096;51.338;12.524;2023-08-01T07:37:23;98410.63;;;20.07;100.00
21863;BME280;11096;51.338;12.524;2023-08-01T07:39:49;98412.22;;;20.14;100.00
21863;BME280;11096;51.338;12.524;2023-08-01T07:42:15;98410.53;;;19.75;100.00
21863;BME280;11096;51.338;12.524;2023-08-01T07:44:40;98414.78;;;19.63;100.00
21863;BME280;11096;51.338;12.524;2023-08-01T07:47:05;98399.63;;;19.45;100.00
21863;BME280;11096;51.338;12.524;2023-08-01T07:49:31;98405.09;;;19.43;100.00
21863;BME280;11096;51.338;12.524;2023-08-01T07:51:56;98396.19;;;19.44;100.00
21863;BME280;11096;51.338;12.524;2023-08-01T07:54:23;98381.63;;;19.08;100.00
21863;BME280;11096;51.338;12.524;2023-08-01T07:56:49;98361.97;;;19.04;100.00
21863;BME280;11096;51.338;12.524;2023-08-01T07:59:14;98352.44;;;19.30;100.00
21863;BME280;11096;51.338;12.524;2023-08-01T08:01:40;98342.28;;;19.34;100.00
21863;BME280;11096;51.338;12.524;2023-08-01T08:04:05;98325.31;;;19.16;100.00
21863;BME280;11096;51.338;12.524;2023-08-01T08:06:31;98286.00;;;19.15;100.00
21863;BME280;11096;51.338;12.524;2023-08-01T08:08:56;98282.38;;;19.16;100.00
21863;BME280;11096;51.338;12.524;2023-08-01T08:11:22;98289.63;;;19.34;100.00
21863;BME280;11096;51.338;12.524;2023-08-01T08:13:48;98298.75;;;19.38;100.00
21863;BME280;11096;51.338;12.524;2023-08-01T08:16:14;98309.03;;;19.52;100.00
21863;BME280;11096;51.338;12.524;2023-08-01T08:18:39;98358.06;;;19.53;100.00
21863;BME280;11096;51.338;12.524;2023-08-01T08:21:05;98368.97;;;19.70;100.00
21863;BME280;11096;51.338;12.524;2023-08-01T08:23:30;98383.16;;;19.56;100.00
21863;BME280;11096;51.338;12.524;2023-08-01T08:25:55;98371.19;;;19.67;100.00
21863;BME280;11096;51.338;12.524;2023-08-01T08:28:32;98356.56;;;19.84;100.00
21863;BME280;11096;51.338;12.524;2023-08-01T08:30:58;98347.09;;;19.70;100.00
21863;BME280;11096;51.338;12.524;2023-08-01T08:33:24;98349.66;;;19.83;100.00
21863;BME280;11096;51.338;12.524;2023-08-01T08:35:50;98353.25;;;19.95;100.00
21863;BME280;11096;51.338;12.524;2023-08-01T08:38:16;98343.50;;;20.03;100.00
21863;BME280;11096;51.338;12.524;2023-08-01T08:40:52;98350.16;;;20.12;100.00
21863;BME280;11096;51.338;12.524;2023-08-01T08:43:20;98353.25;;;19.95;100.00
21863;BME280;11096;51.338;12.524;2023-08-01T08:45:48;98358.81;;;20.26;100.00
21863;BME280;11096;51.338;12.524;2023-08-01T08:48:17;98367.09;;;20.29;100.00
21863;BME280;11096;51.338;12.524;2023-08-01T08:50:45;98356.06;;;20.39;100.00
21863;BME280;11096;51.338;12.524;2023-08-01T08:53:11;98363.41;;;20.30;99.70
21863;BME280;11096;51.338;12.524;2023-08-01T08:55:40;98365.31;;;20.23;100.00
21863;BME280;11096;51.338;12.524;2023-08-01T08:58:07;98365.94;;;20.19;100.00
21863;BME280;11096;51.338;12.524;2023-08-01T09:00:33;98371.75;;;20.27;100.00
21863;BME280;11096;51.338;12.524;2023-08-01T09:02:59;98377.81;;;20.34;99.97
21863;BME280;11096;51.338;12.524;2023-08-01T09:05:27;98378.22;;;20.70;100.00
21863;BME280;11096;51.338;12.524;2023-08-01T09:07:57;98390.75;;;20.43;100.00
21863;BME280;11096;51.338;12.524;2023-08-01T09:10:24;98380.53;;;20.21;100.00
21863;BME280;11096;51.338;12.524;2023-08-01T09:12:50;98372.00;;;20.26;100.00
21863;BME280;11096;51.338;12.524;2023-08-01T09:15:15;98371.59;;;20.22;100.00
21863;BME280;11096;51.338;12.524;2023-08-01T09:17:55;98380.88;;;20.31;100.00
21863;BME280;11096;51.338;12.524;2023-08-01T09:20:28;98379.69;;;20.27;100.00
21863;BME280;11096;51.338;12.524;2023-08-01T09:22:53;98379.34;;;20.10;100.00
21863;BME280;11096;51.338;12.524;2023-08-01T09:25:19;98372.53;;;20.34;100.00
21863;BME280;11096;51.338;12.524;2023-08-01T09:27:44;98368.16;;;20.53;100.00
21863;BME280;11096;51.338;12.524;2023-08-01T09:30:13;98363.22;;;20.70;100.00
21863;BME280;11096;51.338;12.524;2023-08-01T09:33:01;98378.66;;;20.92;100.00
21863;BME280;11096;51.338;12.524;2023-08-01T09:35:26;98372.81;;;20.90;100.00
21863;BME280;11096;51.338;12.524;2023-08-01T09:37:52;98370.25;;;21.01;100.00
21863;BME280;11096;51.338;12.524;2023-08-01T09:40:19;98363.97;;;21.64;100.00
21863;BME280;11096;51.338;12.524;2023-08-01T09:42:45;98374.69;;;21.88;100.00
21863;BME280;11096;51.338;12.524;2023-08-01T09:45:14;98371.03;;;22.19;100.00
21863;BME280;11096;51.338;12.524;2023-08-01T09:47:41;98356.22;;;22.00;97.18
21863;BME280;11096;51.338;12.524;2023-08-01T09:50:06;98377.63;;;21.43;95.44
21863;BME280;11096;51.338;12.524;2023-08-01T09:52:33;98377.28;;;21.14;96.51
21863;BME280;11096;51.338;12.524;2023-08-01T09:54:59;98377.84;;;21.16;98.78
21863;BME280;11096;51.338;12.524;2023-08-01T09:57:31;98393.97;;;21.08;100.00
21863;BME280;11096;51.338;12.524;2023-08-01T09:59:57;98376.47;;;20.89;99.29
21863;BME280;11096;51.338;12.524;2023-08-01T10:02:25;98392.47;;;20.62;100.00
21863;BME280;11096;51.338;12.524;2023-08-01T10:04:52;98393.66;;;20.73;100.00
21863;BME280;11096;51.338;12.524;2023-08-01T10:07:23;98397.41;;;20.52;100.00
21863;BME280;11096;51.338;12.524;2023-08-01T10:09:49;98398.56;;;19.66;100.00
21863;BME280;11096;51.338;12.524;2023-08-01T10:12:17;98403.25;;;19.50;100.00
21863;BME280;11096;51.338;12.524;2023-08-01T10:14:43;98403.53;;;20.01;100.00
21863;BME280;11096;51.338;12.524;2023-08-01T10:17:10;98403.75;;;20.44;100.00
21863;BME280;11096;51.338;12.524;2023-08-01T10:19:37;98408.16;;;20.19;100.00
21863;BME280;11096;51.338;12.524;2023-08-01T10:22:04;98418.63;;;20.70;100.00
21863;BME280;11096;51.338;12.524;2023-08-01T10:24:31;98424.59;;;20.59;100.00
21863;BME280;11096;51.338;12.524;2023-08-01T10:26:58;98433.94;;;20.03;100.00
21863;BME280;11096;51.338;12.524;2023-08-01T10:29:37;98436.03;;;19.94;100.00
21863;BME280;11096;51.338;12.524;2023-08-01T10:32:02;98431.16;;;19.91;100.00
21863;BME280;11096;51.338;12.524;2023-08-01T10:34:28;98439.50;;;19.75;100.00
21863;BME280;11096;51.338;12.524;2023-08-01T10:36:57;98442.44;;;20.12;100.00
21863;BME280;11096;51.338;12.524;2023-08-01T10:39:25;98442.25;;;20.07;100.00
21863;BME280;11096;51.338;12.524;2023-08-01T10:42:02;98442.88;;;20.02;100.00
21863;BME280;11096;51.338;12.524;2023-08-01T10:44:29;98431.72;;;20.07;100.00
21863;BME280;11096;51.338;12.524;2023-08-01T10:47:00;98421.00;;;19.88;100.00
21863;BME280;11096;51.338;12.524;2023-08-01T10:49:43;98425.78;;;20.18;100.00
21863;BME280;11096;51.338;12.524;2023-08-01T10:55:02;98436.25;;;20.76;100.00
21863;BME280;11096;51.338;12.524;2023-08-01T10:57:29;98436.53;;;20.93;100.00
21863;BME280;11096;51.338;12.524;2023-08-01T10:59:56;98434.72;;;20.94;100.00
21863;BME280;11096;51.338;12.524;2023-08-01T11:02:23;98437.09;;;21.52;100.00
21863;BME280;11096;51.338;12.524;2023-08-01T11:07:22;98444.41;;;22.31;100.00
21863;BME280;11096;51.338;12.524;2023-08-01T11:09:47;98438.78;;;22.69;100.00
21863;BME280;11096;51.338;12.524;2023-08-01T11:12:13;98446.13;;;22.97;100.00
21863;BME280;11096;51.338;12.524;2023-08-01T11:14:38;98451.72;;;22.77;97.99
21863;BME280;11096;51.338;12.524;2023-08-01T11:17:04;98443.34;;;22.92;97.36
21863;BME280;11096;51.338;12.524;2023-08-01T11:19:29;98443.19;;;23.52;98.67
21863;BME280;11096;51.338;12.524;2023-08-01T11:21:56;98432.47;;;23.59;97.22
21863;BME280;11096;51.338;12.524;2023-08-01T11:24:22;98440.06;;;23.20;95.17
21863;BME280;11096;51.338;12.524;2023-08-01T11:26:49;98441.47;;;23.34;95.07
21863;BME280;11096;51.338;12.524;2023-08-01T11:29:16;98448.16;;;23.49;93.42
21863;BME280;11096;51.338;12.524;2023-08-01T11:34:19;98439.50;;;23.30;88.23
21863;BME280;11096;51.338;12.524;2023-08-01T11:36:44;98443.31;;;23.46;91.69
21863;BME280;11096;51.338;12.524;2023-08-01T11:39:11;98440.06;;;22.78;88.68
21863;BME280;11096;51.338;12.524;2023-08-01T11:41:38;98442.59;;;23.15;91.63
21863;BME280;11096;51.338;12.524;2023-08-01T11:44:04;98448.78;;;22.18;88.34
21863;BME280;11096;51.338;12.524;2023-08-01T11:46:33;98452.41;;;23.26;92.00
21863;BME280;11096;51.338;12.524;2023-08-01T11:49:00;98452.84;;;23.94;88.79
21863;BME280;11096;51.338;12.524;2023-08-01T11:51:27;98441.69;;;23.45;86.78
21863;BME280;11096;51.338;12.524;2023-08-01T11:54:03;98444.00;;;23.76;89.82
21863;BME280;11096;51.338;12.524;2023-08-01T11:56:29;98447.53;;;24.06;91.90
21863;BME280;11096;51.338;12.524;2023-08-01T11:58:55;98439.47;;;24.00;89.31
21863;BME280;11096;51.338;12.524;2023-08-01T12:01:21;98454.31;;;22.65;87.72
21863;BME280;11096;51.338;12.524;2023-08-01T12:03:51;98452.63;;;22.22;88.22
21863;BME280;11096;51.338;12.524;2023-08-01T12:06:18;98459.97;;;22.39;89.51
21863;BME280;11096;51.338;12.524;2023-08-01T12:08:46;98457.00;;;22.77;88.57
21863;BME280;11096;51.338;12.524;2023-08-01T12:11:26;98464.41;;;22.57;87.04
21863;BME280;11096;51.338;12.524;2023-08-01T12:14:10;98456.09;;;23.25;77.96
21863;BME280;11096;51.338;12.524;2023-08-01T12:16:45;98445.13;;;24.90;67.16
21863;BME280;11096;51.338;12.524;2023-08-01T12:19:16;98446.97;;;25.57;63.36
21863;BME280;11096;51.338;12.524;2023-08-01T12:21:41;98438.09;;;25.68;59.41
21863;BME280;11096;51.338;12.524;2023-08-01T12:24:06;98442.03;;;26.27;57.38
21863;BME280;11096;51.338;12.524;2023-08-01T12:26:32;98443.53;;;26.18;56.96
21863;BME280;11096;51.338;12.524;2023-08-01T12:28:57;98444.81;;;26.91;55.05
21863;BME280;11096;51.338;12.524;2023-08-01T12:31:23;98449.88;;;26.61;56.69
21863;BME280;11096;51.338;12.524;2023-08-01T12:33:49;98449.03;;;25.89;55.21
21863;BME280;11096;51.338;12.524;2023-08-01T12:36:15;98456.09;;;25.27;56.28
21863;BME280;11096;51.338;12.524;2023-08-01T12:38:40;98445.38;;;25.95;57.24
21863;BME280;11096;51.338;12.524;2023-08-01T12:41:06;98446.13;;;26.34;53.91
21863;BME280;11096;51.338;12.524;2023-08-01T12:43:32;98446.09;;;26.84;54.36